Time;durP1;ratioP1;P1;durP2;ratioP2;P2;SDS_P1;SDS_P2;PMS_P1;PMS_P2;Temp;Humidity;BMP_temperature;BMP_pressure;BME280_temperature;BME280_humidity;BME280_pressure;Samples;Min_cycle;Max_cycle;Signal;HPM_P1;HPM_P2
2023/11/19 00:00:51;;;;;;;109.47;46.55;;;11.30;99.90;;;;;;4993218;28;20747;-80
2023/11/19 00:03:17;;;;;;;97.00;46.10;;;11.30;99.90;;;;;;4993748;28;20057;-80
2023/11/19 00:05:44;;;;;;;180.18;56.13;;;11.30;99.90;;;;;;4999877;28;20061;-81
2023/11/19 00:08:10;;;;;;;120.13;51.50;;;11.40;99.90;;;;;;4990332;28;20057;-80
2023/11/19 00:10:36;;;;;;;119.68;50.15;;;11.40;99.90;;;;;;4987870;28;20065;-80
2023/11/19 00:13:05;;;;;;;135.90;52.05;;;11.40;99.90;;;;;;4992927;28;20045;-80
2023/11/19 00:15:30;;;;;;;113.97;49.28;;;11.50;99.90;;;;;;5001054;28;20128;-80
2023/11/19 00:17:56;;;;;;;99.10;46.50;;;11.50;99.90;;;;;;5007206;28;20121;-80
2023/11/19 00:20:22;;;;;;;107.65;44.55;;;11.60;99.90;;;;;;4998787;28;20133;-79
2023/11/19 00:22:54;;;;;;;99.75;45.22;;;11.60;99.90;;;;;;5009789;28;20053;-79
2023/11/19 00:25:23;;;;;;;73.55;41.22;;;11.70;99.90;;;;;;5003666;28;20510;-80
2023/11/19 00:27:51;;;;;;;88.57;43.00;;;11.70;99.90;;;;;;5000741;28;20053;-80
2023/11/19 00:30:17;;;;;;;77.65;39.53;;;11.80;99.90;;;;;;4986848;28;20041;-79
2023/11/19 00:32:43;;;;;;;75.30;37.92;;;11.80;99.90;;;;;;4999166;28;20049;-79
2023/11/19 00:35:15;;;;;;;72.68;39.05;;;11.80;99.90;;;;;;5000729;28;20049;-75
2023/11/19 00:37:42;;;;;;;66.20;36.03;;;11.80;99.90;;;;;;4977243;28;20042;-75
2023/11/19 00:40:10;;;;;;;69.05;35.45;;;11.80;99.90;;;;;;5002779;28;20055;-75
2023/11/19 00:42:36;;;;;;;77.28;33.88;;;11.80;99.90;;;;;;4987085;28;20113;-80
2023/11/19 00:45:02;;;;;;;63.63;31.50;;;11.90;99.90;;;;;;5007879;28;20137;-80
2023/11/19 00:47:28;;;;;;;57.20;30.20;;;11.90;99.90;;;;;;4991123;28;20075;-79
2023/11/19 00:49:53;;;;;;;59.55;27.73;;;11.90;99.90;;;;;;4984663;28;20492;-80
2023/11/19 00:52:20;;;;;;;83.10;30.65;;;11.90;99.90;;;;;;5001168;28;20047;-80
2023/11/19 00:54:46;;;;;;;68.03;28.75;;;11.90;99.90;;;;;;4992524;28;20575;-79
2023/11/19 00:57:11;;;;;;;61.95;23.15;;;11.90;99.90;;;;;;5000143;28;20057;-80
2023/11/19 00:59:38;;;;;;;59.03;22.98;;;11.90;99.90;;;;;;5009042;28;20079;-80
2023/11/19 01:02:05;;;;;;;54.47;20.85;;;11.90;99.90;;;;;;4995661;28;20068;-79
2023/11/19 01:04:35;;;;;;;63.35;20.10;;;11.90;99.90;;;;;;5008884;28;20128;-80
2023/11/19 01:07:05;;;;;;;42.15;17.08;;;11.90;99.90;;;;;;4991530;28;20167;-80
2023/11/19 01:09:32;;;;;;;40.50;17.58;;;11.90;99.90;;;;;;5004597;28;20081;-79
2023/11/19 01:12:00;;;;;;;55.97;16.92;;;11.90;99.90;;;;;;5004691;28;20052;-79
2023/11/19 01:14:26;;;;;;;45.70;15.60;;;11.90;99.90;;;;;;4982019;28;20053;-80
2023/11/19 01:16:54;;;;;;;56.92;16.88;;;11.90;99.90;;;;;;5006042;28;20080;-80
2023/11/19 01:19:24;;;;;;;42.60;13.38;;;11.90;99.90;;;;;;4999127;28;20042;-80
2023/11/19 01:21:51;;;;;;;42.15;13.18;;;12.00;99.90;;;;;;4980663;28;20061;-80
2023/11/19 01:24:17;;;;;;;71.70;16.63;;;12.00;99.90;;;;;;4990845;28;20042;-79
2023/11/19 01:26:45;;;;;;;41.20;12.55;;;12.00;99.90;;;;;;4985011;28;20533;-80
2023/11/19 01:29:14;;;;;;;42.47;12.05;;;12.00;99.90;;;;;;5001069;28;20049;-78
2023/11/19 01:31:41;;;;;;;51.90;13.63;;;11.90;99.90;;;;;;5025887;28;20045;-80
2023/11/19 01:34:07;;;;;;;45.35;12.23;;;12.00;99.90;;;;;;5012046;28;20033;-79
2023/11/19 01:36:32;;;;;;;51.15;11.77;;;12.00;99.90;;;;;;5012009;28;20052;-80
2023/11/19 01:38:58;;;;;;;46.85;12.13;;;12.00;99.90;;;;;;4988386;28;20049;-80
2023/11/19 01:41:24;;;;;;;62.97;12.52;;;12.00;99.90;;;;;;5007164;28;20451;-80
2023/11/19 01:43:50;;;;;;;54.40;12.13;;;12.00;99.90;;;;;;5003651;28;20060;-80
2023/11/19 01:46:16;;;;;;;43.92;11.07;;;12.10;99.90;;;;;;5008877;28;20065;-80
2023/11/19 01:48:45;;;;;;;48.88;11.50;;;12.10;99.90;;;;;;5009971;28;20492;-80
2023/11/19 01:51:16;;;;;;;43.08;10.57;;;12.10;99.90;;;;;;4991128;28;20052;-81
2023/11/19 01:53:43;;;;;;;53.88;11.45;;;12.10;99.90;;;;;;5011898;28;20084;-79
2023/11/19 01:56:11;;;;;;;48.67;11.13;;;12.00;99.90;;;;;;5005936;28;20037;-79
2023/11/19 01:58:38;;;;;;;43.28;10.30;;;12.00;99.90;;;;;;5006699;28;20064;-80
2023/11/19 02:01:07;;;;;;;49.95;10.43;;;11.90;99.90;;;;;;4990982;28;20053;-80
2023/11/19 02:03:33;;;;;;;49.33;10.65;;;11.90;99.90;;;;;;5001766;28;20045;-80
2023/11/19 02:05:59;;;;;;;45.67;10.02;;;11.90;99.90;;;;;;5006754;28;20041;-80
2023/11/19 02:08:26;;;;;;;47.75;10.43;;;11.90;99.90;;;;;;5002480;28;20045;-79
2023/11/19 02:10:52;;;;;;;53.40;11.18;;;12.00;99.90;;;;;;5002614;28;20042;-80
2023/11/19 02:13:21;;;;;;;53.05;12.05;;;12.00;99.90;;;;;;4991795;28;20049;-80
2023/11/19 02:15:50;;;;;;;49.10;11.13;;;12.00;99.90;;;;;;5012618;28;20122;-80
2023/11/19 02:18:29;;;;;;;51.85;11.23;;;12.00;99.90;;;;;;4997712;28;20038;-80
2023/11/19 02:20:59;;;;;;;55.55;11.30;;;12.00;99.90;;;;;;4992099;28;20515;-80
2023/11/19 02:23:29;;;;;;;48.92;10.00;;;12.00;99.90;;;;;;4992997;28;20045;-80
2023/11/19 02:26:17;;;;;;;52.83;11.95;;;12.00;99.90;;;;;;5005968;28;20061;-80
2023/11/19 02:28:43;;;;;;;48.05;11.07;;;12.00;99.90;;;;;;5015360;28;20109;-80
2023/11/19 02:31:13;;;;;;;52.92;12.02;;;12.00;99.90;;;;;;4993148;28;20117;-80
2023/11/19 02:33:39;;;;;;;48.35;10.73;;;12.00;99.90;;;;;;4994413;28;20122;-80
2023/11/19 02:36:06;;;;;;;48.03;9.75;;;12.00;99.90;;;;;;5008377;28;20049;-79
2023/11/19 02:38:34;;;;;;;56.10;11.75;;;12.10;99.90;;;;;;4986468;28;20044;-79
2023/11/19 02:41:04;;;;;;;50.83;10.30;;;12.10;99.90;;;;;;5003135;28;20404;-80
2023/11/19 02:43:33;;;;;;;;;;;12.00;99.90;;;;;;5005589;28;20073;-80
2023/11/19 02:46:01;;;;;;;51.90;10.20;;;12.10;99.90;;;;;;5003941;28;20312;-80
2023/11/19 02:48:26;;;;;;;40.42;9.35;;;12.00;99.90;;;;;;5007503;28;20049;-80
2023/11/19 02:50:52;;;;;;;48.65;9.75;;;12.00;99.90;;;;;;4998347;28;20048;-80
2023/11/19 02:53:21;;;;;;;43.70;9.23;;;12.00;99.90;;;;;;5010068;28;20534;-78
2023/11/19 02:55:50;;;;;;;41.65;9.18;;;12.00;99.90;;;;;;5003396;28;20052;-80
2023/11/19 02:58:19;;;;;;;45.20;9.77;;;12.00;99.90;;;;;;4994493;28;20049;-81
2023/11/19 03:00:54;;;;;;;46.88;9.38;;;12.00;99.90;;;;;;5012244;28;20068;-81
2023/11/19 03:03:22;;;;;;;42.10;9.68;;;12.00;99.90;;;;;;4981781;28;20037;-80
2023/11/19 03:05:48;;;;;;;48.35;9.45;;;12.00;99.90;;;;;;4994965;28;20045;-81
2023/11/19 03:08:17;;;;;;;43.15;9.32;;;12.00;99.90;;;;;;5003903;28;20159;-81
2023/11/19 03:10:43;;;;;;;45.95;9.13;;;12.00;99.90;;;;;;5005395;28;20041;-80
2023/11/19 03:13:19;;;;;;;38.78;9.48;;;12.00;99.90;;;;;;4992744;28;20091;-80
2023/11/19 03:15:45;;;;;;;47.72;10.60;;;12.00;99.90;;;;;;5004282;28;20500;-80
2023/11/19 03:18:11;;;;;;;42.78;9.00;;;11.90;99.90;;;;;;5005345;28;20064;-80
2023/11/19 03:20:37;;;;;;;49.22;9.80;;;11.90;99.90;;;;;;4987066;28;20501;-80
2023/11/19 03:23:03;;;;;;;47.97;9.57;;;11.90;99.90;;;;;;4987746;28;20042;-81
2023/11/19 03:25:36;;;;;;;44.72;8.90;;;11.90;99.90;;;;;;5005604;28;20049;-81
2023/11/19 03:28:06;;;;;;;46.40;9.77;;;11.90;99.90;;;;;;4990929;28;20408;-81
2023/11/19 03:30:32;;;;;;;45.70;9.07;;;11.80;99.90;;;;;;5001702;28;20054;-80
2023/11/19 03:32:59;;;;;;;50.97;10.02;;;11.90;99.90;;;;;;5002626;28;20056;-81
2023/11/19 03:35:25;;;;;;;45.25;9.00;;;11.80;99.90;;;;;;4992442;28;20052;-80
2023/11/19 03:37:54;;;;;;;51.78;9.40;;;11.90;99.90;;;;;;4994612;28;20128;-80
2023/11/19 03:40:20;;;;;;;50.38;9.77;;;11.80;99.90;;;;;;4991149;28;20106;-80
2023/11/19 03:42:49;;;;;;;48.72;10.60;;;11.90;99.90;;;;;;4993314;28;20049;-80
2023/11/19 03:45:15;;;;;;;46.90;10.18;;;11.80;99.90;;;;;;4975143;28;20536;-80
2023/11/19 03:47:41;;;;;;;39.78;8.95;;;11.90;99.90;;;;;;5007589;28;20068;-80
2023/11/19 03:50:08;;;;;;;55.97;11.05;;;11.90;99.90;;;;;;5009704;28;20045;-80
2023/11/19 03:52:34;;;;;;;48.22;9.52;;;11.80;99.90;;;;;;4989469;28;20136;-80
2023/11/19 03:55:00;;;;;;;54.60;10.80;;;11.80;99.90;;;;;;5007647;28;20122;-80
2023/11/19 03:57:27;;;;;;;54.53;10.40;;;11.80;99.90;;;;;;5000652;28;20038;-80
2023/11/19 03:59:55;;;;;;;49.60;10.82;;;11.80;99.90;;;;;;4987459;28;20131;-80
2023/11/19 04:02:21;;;;;;;53.92;10.23;;;11.90;99.90;;;;;;5008638;28;20059;-79
2023/11/19 04:04:48;;;;;;;45.05;9.90;;;11.90;99.90;;;;;;5005674;28;20052;-79
2023/11/19 04:07:13;;;;;;;45.35;10.05;;;11.80;99.90;;;;;;4992923;28;20128;-79
2023/11/19 04:09:39;;;;;;;46.55;10.20;;;11.80;99.90;;;;;;4990282;28;20524;-79
2023/11/19 04:12:05;;;;;;;52.92;10.80;;;11.80;99.90;;;;;;4991178;28;20051;-79
2023/11/19 04:14:31;;;;;;;48.60;9.95;;;11.80;99.90;;;;;;5010161;28;20077;-79
2023/11/19 04:16:57;;;;;;;48.10;9.90;;;11.70;99.90;;;;;;4990343;28;20077;-79
2023/11/19 04:19:23;;;;;;;52.65;10.48;;;11.70;99.90;;;;;;4987616;28;20132;-80
2023/11/19 04:21:48;;;;;;;54.85;11.15;;;11.60;99.90;;;;;;4984849;28;20063;-79
2023/11/19 04:24:15;;;;;;;54.72;10.68;;;11.60;99.90;;;;;;4985800;28;20493;-80
2023/11/19 04:26:45;;;;;;;48.53;10.70;;;11.60;99.90;;;;;;5004739;28;20408;-80
2023/11/19 04:29:15;;;;;;;51.22;9.60;;;11.50;99.90;;;;;;5005398;28;20045;-80
2023/11/19 04:31:41;;;;;;;53.63;10.65;;;11.50;99.90;;;;;;5004223;28;20056;-79
2023/11/19 04:34:07;;;;;;;43.40;9.68;;;11.50;99.90;;;;;;5013180;28;20057;-79
2023/11/19 04:36:33;;;;;;;47.10;9.93;;;11.50;99.90;;;;;;5000837;28;20041;-79
2023/11/19 04:39:04;;;;;;;45.20;10.00;;;11.40;99.90;;;;;;4990131;28;20056;-79
2023/11/19 04:41:31;;;;;;;46.55;10.30;;;11.40;99.90;;;;;;5003934;28;20423;-79
2023/11/19 04:43:57;;;;;;;44.90;9.98;;;11.40;99.90;;;;;;5009748;28;20076;-80
2023/11/19 04:46:23;;;;;;;51.60;10.32;;;11.40;99.90;;;;;;5003351;28;20045;-79
2023/11/19 04:48:50;;;;;;;46.70;9.32;;;11.30;99.90;;;;;;4990183;28;20048;-79
2023/11/19 04:51:15;;;;;;;55.03;10.52;;;11.30;99.90;;;;;;4984200;28;20041;-79
2023/11/19 04:53:41;;;;;;;55.78;11.40;;;11.30;99.90;;;;;;5006873;28;20052;-79
2023/11/19 04:56:11;;;;;;;57.00;9.70;;;11.30;99.90;;;;;;4991316;28;20116;-79
2023/11/19 04:58:37;;;;;;;59.92;10.32;;;11.30;99.90;;;;;;5003830;28;20969;-79
2023/11/19 05:01:13;;;;;;;45.95;9.88;;;11.30;99.90;;;;;;4983941;28;20091;-79
2023/11/19 05:03:39;;;;;;;45.33;9.95;;;11.30;99.90;;;;;;4982778;28;20104;-80
2023/11/19 05:06:06;;;;;;;51.38;10.48;;;11.30;99.90;;;;;;4990401;28;20057;-79
2023/11/19 05:08:32;;;;;;;51.15;10.70;;;11.20;99.90;;;;;;5005024;28;20057;-79
2023/11/19 05:10:59;;;;;;;52.85;9.73;;;11.30;99.90;;;;;;4995450;28;20049;-79
2023/11/19 05:13:24;;;;;;;58.17;11.43;;;11.20;99.90;;;;;;4991875;28;20045;-78
2023/11/19 05:15:50;;;;;;;45.83;10.82;;;11.20;99.90;;;;;;5005758;28;20056;-79
2023/11/19 05:18:16;;;;;;;59.83;12.20;;;11.20;99.90;;;;;;4988872;28;20579;-79
2023/11/19 05:20:42;;;;;;;46.50;10.25;;;11.20;99.90;;;;;;5001657;28;20041;-79
2023/11/19 05:23:08;;;;;;;42.78;8.95;;;11.20;99.90;;;;;;4994937;28;20045;-80
2023/11/19 05:25:34;;;;;;;46.10;10.50;;;11.10;99.90;;;;;;4987064;28;20034;-79
2023/11/19 05:27:59;;;;;;;56.45;10.30;;;11.10;99.90;;;;;;4980331;28;20566;-78
2023/11/19 05:30:25;;;;;;;52.03;9.65;;;11.20;99.90;;;;;;4990850;28;20056;-79
2023/11/19 05:32:51;;;;;;;45.67;10.45;;;11.10;99.90;;;;;;4981715;28;20048;-78
2023/11/19 05:35:16;;;;;;;54.63;9.95;;;11.10;99.90;;;;;;5003694;28;20044;-79
2023/11/19 05:37:42;;;;;;;42.95;9.57;;;11.10;99.90;;;;;;4976524;28;20057;-78
2023/11/19 05:40:14;;;;;;;54.80;10.98;;;11.10;99.90;;;;;;5003908;28;20060;-79
2023/11/19 05:42:41;;;;;;;57.40;10.98;;;11.20;99.90;;;;;;4997856;28;20140;-79
2023/11/19 05:45:07;;;;;;;57.60;11.13;;;11.20;99.90;;;;;;5003290;28;20037;-79
2023/11/19 05:47:33;;;;;;;51.33;11.13;;;11.10;99.90;;;;;;4979117;28;20046;-78
2023/11/19 05:49:59;;;;;;;52.65;9.73;;;11.20;99.90;;;;;;5006283;28;20069;-78
2023/11/19 05:52:25;;;;;;;45.35;9.75;;;11.20;99.90;;;;;;5006175;28;20049;-78
2023/11/19 05:54:54;;;;;;;48.58;9.82;;;11.20;99.90;;;;;;4993693;28;20111;-78
2023/11/19 05:57:25;;;;;;;46.53;9.63;;;11.20;99.90;;;;;;4995437;28;20134;-78
2023/11/19 05:59:51;;;;;;;48.85;10.00;;;11.20;99.90;;;;;;5007358;28;20302;-78
2023/11/19 06:02:17;;;;;;;47.67;10.18;;;11.20;99.90;;;;;;4997227;28;20045;-77
2023/11/19 06:04:44;;;;;;;47.75;10.00;;;11.20;99.90;;;;;;4985318;28;20053;-79
2023/11/19 06:07:10;;;;;;;52.53;9.70;;;11.10;99.90;;;;;;5012339;28;20061;-78
2023/11/19 06:09:36;;;;;;;50.85;9.85;;;11.10;99.90;;;;;;4996709;28;20038;-78
2023/11/19 06:12:02;;;;;;;48.75;9.55;;;11.10;99.90;;;;;;5002445;28;20049;-78
2023/11/19 06:14:28;;;;;;;49.53;10.57;;;11.10;99.90;;;;;;5005194;28;20065;-77
2023/11/19 06:16:54;;;;;;;43.28;9.77;;;11.00;99.90;;;;;;4997464;28;20045;-80
2023/11/19 06:19:19;;;;;;;46.40;10.52;;;11.00;99.90;;;;;;5011623;28;20144;-78
2023/11/19 06:21:45;;;;;;;46.08;9.50;;;11.00;99.90;;;;;;5006181;28;20103;-78
2023/11/19 06:24:11;;;;;;;46.13;10.07;;;11.00;99.90;;;;;;4986150;28;20034;-77
2023/11/19 06:26:36;;;;;;;49.60;10.60;;;11.00;99.90;;;;;;4994419;28;20052;-78
2023/11/19 06:29:02;;;;;;;46.13;9.88;;;11.00;99.90;;;;;;5003578;28;20690;-77
2023/11/19 06:31:28;;;;;;;43.42;9.90;;;11.00;99.90;;;;;;5008952;28;20049;-78
2023/11/19 06:33:54;;;;;;;48.25;10.05;;;10.90;99.90;;;;;;5010942;28;20041;-78
2023/11/19 06:36:19;;;;;;;44.78;9.43;;;10.90;99.90;;;;;;4996892;28;20045;-78
2023/11/19 06:38:45;;;;;;;47.05;9.35;;;10.90;99.90;;;;;;5005850;28;20492;-77
2023/11/19 06:41:11;;;;;;;46.10;10.02;;;10.90;99.90;;;;;;4993763;28;20041;-78
2023/11/19 06:43:37;;;;;;;43.90;10.05;;;10.80;99.90;;;;;;5005876;28;20053;-78
2023/11/19 06:46:05;;;;;;;46.75;9.50;;;10.90;99.90;;;;;;4986018;28;20038;-77
2023/11/19 06:48:32;;;;;;;50.55;9.50;;;10.80;99.90;;;;;;5006187;28;20124;-77
2023/11/19 06:50:59;;;;;;;48.25;10.05;;;10.80;99.90;;;;;;5012562;28;20378;-77
2023/11/19 06:53:25;;;;;;;46.15;9.45;;;10.90;99.90;;;;;;4991920;28;20045;-77
2023/11/19 06:55:50;;;;;;;48.33;9.27;;;10.90;99.90;;;;;;5010902;28;20049;-77
2023/11/19 06:58:17;;;;;;;44.33;10.32;;;10.80;99.90;;;;;;5008998;28;20044;-77
2023/11/19 07:00:44;;;;;;;43.47;9.88;;;10.90;99.90;;;;;;5006356;28;20057;-77
2023/11/19 07:03:10;;;;;;;40.63;9.27;;;10.90;99.90;;;;;;4991968;28;20073;-77
2023/11/19 07:05:39;;;;;;;47.83;10.80;;;10.90;99.90;;;;;;5007766;28;20106;-77
2023/11/19 07:08:07;;;;;;;45.72;10.00;;;10.90;99.90;;;;;;5010986;28;20059;-78
2023/11/19 07:10:33;;;;;;;44.35;9.45;;;10.90;99.90;;;;;;5008463;28;20041;-77
2023/11/19 07:13:00;;;;;;;41.00;9.00;;;10.90;99.90;;;;;;5007530;28;20052;-76
2023/11/19 07:15:25;;;;;;;43.13;9.35;;;10.90;99.90;;;;;;5008893;28;20057;-77
2023/11/19 07:17:54;;;;;;;46.55;9.43;;;11.00;99.90;;;;;;5003371;28;20046;-77
2023/11/19 07:20:20;;;;;;;43.10;8.82;;;11.00;99.90;;;;;;4994079;28;20037;-77
2023/11/19 07:22:45;;;;;;;49.15;9.80;;;11.00;99.90;;;;;;5006272;28;20615;-77
2023/11/19 07:25:13;;;;;;;37.50;8.57;;;10.90;99.90;;;;;;4989471;28;20889;-78
2023/11/19 07:27:39;;;;;;;49.95;9.70;;;10.90;99.90;;;;;;4996286;28;20784;-76
2023/11/19 07:30:07;;;;;;;40.53;9.43;;;10.90;99.90;;;;;;5010568;28;20492;-76
2023/11/19 07:32:33;;;;;;;43.33;8.93;;;10.90;99.90;;;;;;4994518;28;20717;-76
2023/11/19 07:34:59;;;;;;;46.90;9.48;;;10.90;99.90;;;;;;4993891;28;20053;-76
2023/11/19 07:37:25;;;;;;;45.78;8.45;;;10.90;99.90;;;;;;4991614;28;20042;-76
2023/11/19 07:39:51;;;;;;;42.03;9.27;;;10.90;99.90;;;;;;5009648;28;20668;-76
2023/11/19 07:42:17;;;;;;;38.28;7.88;;;10.90;99.90;;;;;;5007634;28;20042;-77
2023/11/19 07:44:44;;;;;;;46.38;9.10;;;10.90;99.90;;;;;;5007079;28;20111;-76
2023/11/19 07:47:10;;;;;;;48.08;10.60;;;10.90;99.90;;;;;;5006826;28;20712;-76
2023/11/19 07:49:35;;;;;;;46.97;10.10;;;10.90;99.90;;;;;;4995634;28;20053;-76
2023/11/19 07:52:02;;;;;;;41.00;8.32;;;10.90;99.90;;;;;;4986471;28;20050;-76
2023/11/19 07:54:28;;;;;;;48.97;9.57;;;10.90;99.90;;;;;;5004296;28;20064;-77
2023/11/19 07:56:55;;;;;;;49.88;10.38;;;10.90;99.90;;;;;;4997498;28;20054;-76
2023/11/19 07:59:21;;;;;;;45.08;9.50;;;10.90;99.90;;;;;;4999917;28;20755;-76
2023/11/19 08:01:46;;;;;;;51.80;10.95;;;10.90;99.90;;;;;;4988545;28;20057;-77
2023/11/19 08:04:12;;;;;;;43.58;9.55;;;10.90;99.90;;;;;;5005797;28;20049;-76
2023/11/19 08:06:38;;;;;;;41.05;8.73;;;11.00;99.90;;;;;;4992487;28;20128;-77
2023/11/19 08:09:05;;;;;;;47.85;9.38;;;11.00;99.90;;;;;;5007370;28;20523;-77
2023/11/19 08:11:30;;;;;;;40.00;9.05;;;11.00;99.90;;;;;;5007183;28;20128;-76
2023/11/19 08:13:56;;;;;;;44.72;8.85;;;11.10;99.90;;;;;;5008485;28;20128;-77
2023/11/19 08:16:22;;;;;;;42.20;9.60;;;11.10;99.90;;;;;;5003102;28;20543;-77
2023/11/19 08:18:48;;;;;;;45.95;10.20;;;11.10;99.90;;;;;;5006199;28;20045;-77
2023/11/19 08:21:14;;;;;;;44.50;10.45;;;11.10;99.90;;;;;;5008436;28;20103;-77
2023/11/19 08:23:40;;;;;;;44.40;10.00;;;11.10;99.90;;;;;;5008819;28;20681;-76
2023/11/19 08:26:06;;;;;;;44.55;9.45;;;11.10;99.90;;;;;;5005620;28;20088;-77
2023/11/19 08:28:34;;;;;;;43.85;9.07;;;11.10;99.90;;;;;;4989893;28;20037;-76
2023/11/19 08:31:00;;;;;;;43.55;9.40;;;11.10;99.90;;;;;;4987951;28;20555;-76
2023/11/19 08:33:27;;;;;;;44.97;9.82;;;11.10;99.90;;;;;;5009771;28;20516;-76
2023/11/19 08:35:52;;;;;;;44.90;9.70;;;11.10;99.90;;;;;;4992671;28;20099;-76
2023/11/19 08:38:18;;;;;;;40.05;8.45;;;11.20;99.90;;;;;;5006157;28;20042;-76
2023/11/19 08:40:44;;;;;;;38.83;8.23;;;11.20;99.90;;;;;;4994372;28;20042;-76
2023/11/19 08:43:10;;;;;;;44.75;9.48;;;11.20;99.90;;;;;;5000353;28;20045;-76
2023/11/19 08:45:36;;;;;;;44.15;9.50;;;11.20;99.90;;;;;;4991353;28;20041;-77
2023/11/19 08:48:02;;;;;;;46.35;9.45;;;11.20;99.90;;;;;;4992767;28;20060;-77
2023/11/19 08:50:27;;;;;;;44.75;9.95;;;11.20;99.90;;;;;;4990185;28;20508;-76
2023/11/19 08:52:53;;;;;;;52.72;9.38;;;11.20;99.90;;;;;;5009079;28;20067;-76
2023/11/19 08:55:19;;;;;;;50.45;10.02;;;11.20;99.90;;;;;;4983304;28;20037;-76
2023/11/19 08:57:45;;;;;;;44.33;9.52;;;11.20;99.90;;;;;;5009291;28;20053;-78
2023/11/19 09:00:14;;;;;;;51.50;9.95;;;11.20;99.90;;;;;;4988034;28;20543;-77
2023/11/19 09:02:40;;;;;;;40.75;8.38;;;11.20;99.90;;;;;;5004883;28;20048;-77
2023/11/19 09:05:09;;;;;;;42.63;8.73;;;11.20;99.90;;;;;;5017207;28;20171;-76
2023/11/19 09:07:35;;;;;;;46.53;9.73;;;11.20;99.90;;;;;;5003016;28;20514;-76
2023/11/19 09:10:01;;;;;;;50.03;9.55;;;11.20;99.90;;;;;;5005805;28;20049;-77
2023/11/19 09:12:27;;;;;;;52.85;10.15;;;11.20;99.90;;;;;;4991463;28;20136;-76
2023/11/19 09:14:53;;;;;;;46.05;9.50;;;11.30;99.90;;;;;;5006343;28;20623;-77
2023/11/19 09:17:18;;;;;;;46.17;9.43;;;11.20;99.90;;;;;;4991080;28;20034;-76
2023/11/19 09:19:44;;;;;;;41.38;8.68;;;11.30;99.90;;;;;;4987889;28;20408;-76
2023/11/19 09:22:10;;;;;;;35.63;8.82;;;11.30;99.90;;;;;;5009882;28;20048;-76
2023/11/19 09:24:36;;;;;;;45.70;9.32;;;11.30;99.90;;;;;;4987040;28;20455;-76
2023/11/19 09:27:01;;;;;;;41.45;9.48;;;11.30;99.90;;;;;;5004521;28;20143;-76
2023/11/19 09:29:27;;;;;;;46.05;8.80;;;11.30;99.90;;;;;;4996705;28;20049;-76
2023/11/19 09:31:53;;;;;;;55.40;10.48;;;11.30;99.90;;;;;;4984615;28;20049;-76
2023/11/19 09:34:20;;;;;;;40.78;8.52;;;11.40;99.90;;;;;;4999216;28;20405;-76
2023/11/19 09:36:45;;;;;;;40.15;8.35;;;11.40;99.90;;;;;;4986379;28;20127;-76
2023/11/19 09:39:13;;;;;;;41.08;9.20;;;11.40;99.90;;;;;;4998400;28;20559;-75
2023/11/19 09:41:41;;;;;;;46.60;9.50;;;11.50;99.90;;;;;;5007344;28;20176;-75
2023/11/19 09:44:09;;;;;;;35.90;8.63;;;11.50;99.90;;;;;;4999985;28;20038;-75
2023/11/19 09:46:35;;;;;;;49.03;9.63;;;11.50;99.90;;;;;;4991001;28;20052;-76
2023/11/19 09:49:04;;;;;;;32.38;7.93;;;11.50;99.90;;;;;;4997369;28;20572;-76
2023/11/19 09:51:29;;;;;;;35.75;8.23;;;11.50;99.90;;;;;;5007813;28;20057;-76
2023/11/19 09:53:55;;;;;;;42.15;9.13;;;11.50;99.90;;;;;;4989930;28;20045;-75
2023/11/19 09:56:25;;;;;;;37.35;8.55;;;11.60;99.90;;;;;;5002158;28;20057;-75
2023/11/19 09:58:50;;;;;;;42.57;9.50;;;11.60;99.90;;;;;;5001535;28;20037;-76
2023/11/19 10:01:16;;;;;;;37.92;8.40;;;11.60;99.90;;;;;;5003519;28;20399;-75
2023/11/19 10:03:46;;;;;;;45.45;9.43;;;11.60;99.90;;;;;;4989943;28;20045;-76
2023/11/19 10:06:14;;;;;;;41.85;8.45;;;11.60;99.90;;;;;;4988867;28;20511;-76
2023/11/19 10:08:41;;;;;;;40.60;8.60;;;11.70;99.90;;;;;;5003711;28;20038;-76
2023/11/19 10:11:07;;;;;;;44.60;10.05;;;11.60;99.90;;;;;;4988769;28;20508;-76
2023/11/19 10:13:37;;;;;;;45.63;8.35;;;11.60;99.90;;;;;;4985317;28;20496;-76
2023/11/19 10:16:12;;;;;;;48.22;9.13;;;11.60;99.90;;;;;;5000814;28;20506;-76
2023/11/19 10:18:45;;;;;;;40.53;8.32;;;11.60;99.90;;;;;;4999081;28;20049;-76
2023/11/19 10:21:16;;;;;;;43.03;9.52;;;11.60;99.90;;;;;;5005664;28;20049;-76
2023/11/19 10:23:53;;;;;;;45.70;7.80;;;11.60;99.90;;;;;;5002020;28;20120;-74
2023/11/19 10:26:20;;;;;;;41.78;8.98;;;11.60;99.90;;;;;;4998558;28;20041;-74
2023/11/19 10:28:47;;;;;;;39.53;8.63;;;11.60;99.90;;;;;;5005530;28;20038;-74
2023/11/19 10:31:16;;;;;;;44.42;8.52;;;11.60;99.90;;;;;;5006484;28;20073;-73
2023/11/19 10:33:44;;;;;;;50.85;9.45;;;11.60;99.90;;;;;;4989056;28;20385;-74
2023/11/19 10:36:14;;;;;;;42.13;8.63;;;11.50;99.90;;;;;;5002254;28;20586;-74
2023/11/19 10:38:40;;;;;;;41.67;8.77;;;11.50;99.90;;;;;;5005554;28;20046;-74
2023/11/19 10:41:07;;;;;;;42.40;8.60;;;11.50;99.90;;;;;;4990109;28;20045;-74
2023/11/19 10:43:44;;;;;;;44.22;8.63;;;11.50;99.90;;;;;;4991092;28;20038;-74
2023/11/19 10:46:14;;;;;;;48.70;8.98;;;11.50;99.90;;;;;;5002271;28;20095;-76
2023/11/19 10:48:40;;;;;;;41.67;8.95;;;11.50;99.90;;;;;;4990957;28;20543;-76
2023/11/19 10:51:08;;;;;;;38.72;8.07;;;11.50;99.90;;;;;;5002858;28;20187;-75
2023/11/19 10:53:40;;;;;;;34.63;9.10;;;11.50;99.90;;;;;;5004471;28;20053;-77
2023/11/19 10:56:10;;;;;;;37.45;8.55;;;11.50;99.90;;;;;;5008882;28;20087;-74
2023/11/19 10:58:40;;;;;;;44.75;8.82;;;11.50;99.90;;;;;;4997633;28;20057;-75
2023/11/19 11:01:20;;;;;;;42.28;9.00;;;11.60;99.90;;;;;;5006418;28;20377;-76
2023/11/19 11:03:47;;;;;;;40.25;8.00;;;11.60;99.90;;;;;;5002541;28;20049;-76
2023/11/19 11:06:13;;;;;;;50.42;9.95;;;11.70;99.90;;;;;;5005833;28;20262;-76
2023/11/19 11:08:39;;;;;;;45.05;9.63;;;11.70;99.90;;;;;;4987834;28;20092;-75
2023/11/19 11:11:07;;;;;;;50.85;8.77;;;11.70;99.90;;;;;;4976673;28;20077;-76
2023/11/19 11:13:36;;;;;;;43.17;8.25;;;11.60;99.90;;;;;;4978229;28;20064;-76
2023/11/19 11:16:04;;;;;;;34.10;7.40;;;11.60;99.90;;;;;;5000678;28;20099;-75
2023/11/19 11:18:29;;;;;;;50.67;8.77;;;11.60;99.90;;;;;;4997833;28;20312;-75
2023/11/19 11:21:03;;;;;;;47.03;8.65;;;11.50;99.90;;;;;;5003380;28;20095;-76
2023/11/19 11:23:56;;;;;;;48.30;8.45;;;11.50;99.90;;;;;;4994473;28;20108;-75
2023/11/19 11:27:04;;;;;;;51.63;8.82;;;11.50;99.90;;;;;;4985500;28;20042;-76
2023/11/19 11:29:50;;;;;;;49.75;9.52;;;11.50;99.90;;;;;;4974106;28;20448;-76
2023/11/19 11:32:32;;;;;;;46.00;9.48;;;11.50;99.90;;;;;;4987683;28;20428;-76
2023/11/19 11:35:04;;;;;;;49.72;9.57;;;11.60;99.90;;;;;;5001688;28;20567;-76
2023/11/19 11:37:55;;;;;;;35.90;8.02;;;11.60;99.90;;;;;;4993018;28;20102;-75
2023/11/19 11:40:26;;;;;;;46.35;8.80;;;11.50;99.90;;;;;;4989644;28;20405;-76
2023/11/19 11:42:52;;;;;;;47.22;8.90;;;11.50;99.90;;;;;;5007318;28;20054;-76
2023/11/19 11:45:34;;;;;;;47.97;8.90;;;11.50;99.90;;;;;;4994215;28;20096;-76
2023/11/19 11:48:20;;;;;;;49.90;9.98;;;11.50;99.90;;;;;;4997363;28;20500;-76
2023/11/19 11:50:49;;;;;;;50.03;9.60;;;11.50;99.90;;;;;;5002424;28;20049;-77
2023/11/19 11:53:24;;;;;;;45.65;9.57;;;11.50;99.90;;;;;;5004972;28;20056;-75
2023/11/19 11:55:49;;;;;;;53.45;8.73;;;11.50;99.90;;;;;;4999159;28;20058;-78
2023/11/19 11:58:25;;;;;;;58.20;9.35;;;11.50;99.90;;;;;;4980538;28;20045;-78
2023/11/19 12:00:51;;;;;;;45.13;9.52;;;11.40;99.90;;;;;;4988716;28;20285;-78
2023/11/19 12:03:24;;;;;;;45.70;9.70;;;11.40;99.90;;;;;;5009220;28;20041;-78
2023/11/19 12:05:54;;;;;;;46.22;8.70;;;11.40;99.90;;;;;;4989650;28;20055;-78
2023/11/19 12:08:28;;;;;;;51.03;9.02;;;11.50;99.90;;;;;;4995156;28;20053;-78
2023/11/19 12:10:59;;;;;;;45.78;9.07;;;11.50;99.90;;;;;;4996886;28;20063;-78
2023/11/19 12:13:50;;;;;;;52.75;9.10;;;11.50;99.90;;;;;;5005606;28;20069;-77
2023/11/19 12:16:16;;;;;;;50.75;8.38;;;11.50;99.90;;;;;;5008085;28;20046;-78
2023/11/19 12:18:41;;;;;;;44.17;8.60;;;11.40;99.90;;;;;;5005923;28;20102;-78
2023/11/19 12:21:09;;;;;;;50.08;9.43;;;11.50;99.90;;;;;;5005612;28;20139;-79
2023/11/19 12:23:36;;;;;;;46.72;9.02;;;11.50;99.90;;;;;;5003628;28;20044;-79
2023/11/19 12:26:01;;;;;;;47.72;9.00;;;11.40;99.90;;;;;;5000966;28;20060;-78
2023/11/19 12:28:27;;;;;;;45.47;8.45;;;11.50;99.90;;;;;;5007906;28;20500;-78
2023/11/19 12:30:53;;;;;;;43.92;8.13;;;11.50;99.90;;;;;;5002426;28;20357;-79
2023/11/19 12:33:19;;;;;;;41.80;8.75;;;11.40;99.90;;;;;;5007998;28;20037;-78
2023/11/19 12:35:47;;;;;;;41.92;8.43;;;11.40;99.90;;;;;;4987911;28;20120;-78